Time;durP1;ratioP1;P1;durP2;ratioP2;P2;SDS_P1;SDS_P2;PMS_P1;PMS_P2;Temp;Humidity;BMP_temperature;BMP_pressure;BME280_temperature;BME280_humidity;BME280_pressure;Samples;Min_cycle;Max_cycle;Signal;HPM_P1;HPM_P2
2021/06/26 00:01:25;;;;;;;3.47;2.35;;;17.40;59.30;;;;;;5025694;28;20034;-80
2021/06/26 00:03:51;;;;;;;2.40;2.13;;;17.40;59.30;;;;;;5018825;28;20041;-78
2021/06/26 00:06:17;;;;;;;2.15;1.90;;;17.30;59.20;;;;;;5046828;28;20039;-77
2021/06/26 00:08:43;;;;;;;2.35;2.15;;;17.30;59.20;;;;;;5046139;28;20033;-78
2021/06/26 00:11:09;;;;;;;2.55;2.22;;;17.30;59.20;;;;;;5046386;28;20109;-79
2021/06/26 00:13:35;;;;;;;3.17;2.28;;;17.30;59.20;;;;;;5046518;28;20116;-80
2021/06/26 00:16:02;;;;;;;2.42;2.17;;;17.30;59.20;;;;;;5045257;28;20144;-81
2021/06/26 00:18:28;;;;;;;2.75;2.30;;;17.30;59.30;;;;;;5044908;28;20036;-80
2021/06/26 00:20:54;;;;;;;3.50;2.55;;;17.30;59.30;;;;;;5046467;28;20036;-80
2021/06/26 00:23:20;;;;;;;2.40;2.20;;;17.20;59.20;;;;;;5028273;28;20033;-81
2021/06/26 00:25:46;;;;;;;3.83;2.40;;;17.30;59.40;;;;;;5045236;28;20475;-80
2021/06/26 00:28:12;;;;;;;2.67;2.42;;;17.20;59.20;;;;;;5061476;28;20029;-81
2021/06/26 00:30:38;;;;;;;2.85;2.60;;;17.30;59.40;;;;;;5045379;28;20029;-81
2021/06/26 00:33:04;;;;;;;2.40;2.20;;;17.20;59.30;;;;;;5045241;28;20408;-81
2021/06/26 00:35:30;;;;;;;2.60;2.40;;;17.20;59.30;;;;;;5038188;28;20033;-81
2021/06/26 00:37:56;;;;;;;4.38;2.70;;;17.20;59.30;;;;;;5024988;28;20037;-81
2021/06/26 00:40:22;;;;;;;2.80;2.60;;;17.20;59.30;;;;;;5024569;28;20061;-81
2021/06/26 00:42:49;;;;;;;3.45;2.10;;;17.20;59.40;;;;;;5009984;28;20132;-81
2021/06/26 00:45:17;;;;;;;4.22;2.63;;;17.20;59.40;;;;;;5031129;28;20029;-81
2021/06/26 00:47:43;;;;;;;2.47;2.25;;;17.20;59.40;;;;;;5048652;28;20138;-81
2021/06/26 00:50:12;;;;;;;4.13;2.90;;;17.20;59.40;;;;;;5031849;28;20029;-80
2021/06/26 00:52:38;;;;;;;3.13;2.85;;;17.10;59.30;;;;;;5048320;28;20037;-80
2021/06/26 00:55:05;;;;;;;2.40;2.20;;;17.10;59.30;;;;;;5031993;28;20075;-80
2021/06/26 00:57:33;;;;;;;4.40;2.67;;;17.10;59.40;;;;;;5031557;28;20123;-80
2021/06/26 01:00:05;;;;;;;2.58;2.22;;;17.10;59.40;;;;;;5015784;28;20095;-80
2021/06/26 01:02:31;;;;;;;3.25;2.75;;;17.10;59.50;;;;;;5012165;28;20310;-80
2021/06/26 01:04:58;;;;;;;3.88;2.58;;;17.00;59.20;;;;;;5028652;28;20318;-80
2021/06/26 01:07:24;;;;;;;3.00;2.70;;;17.00;59.30;;;;;;5027968;28;20040;-80
2021/06/26 01:09:51;;;;;;;3.15;2.80;;;17.10;59.50;;;;;;5023017;28;20033;-78
2021/06/26 01:12:17;;;;;;;3.40;2.63;;;17.10;59.50;;;;;;5028267;28;20037;-77
2021/06/26 01:14:43;;;;;;;4.28;2.72;;;17.00;59.40;;;;;;5031670;28;20040;-80
2021/06/26 01:17:09;;;;;;;3.03;2.72;;;17.00;59.40;;;;;;5031000;28;20029;-80
2021/06/26 01:19:36;;;;;;;2.92;2.63;;;17.00;59.40;;;;;;5047605;28;20319;-78
2021/06/26 01:22:07;;;;;;;3.45;2.97;;;17.00;59.50;;;;;;5031291;28;20037;-81
2021/06/26 01:24:37;;;;;;;2.55;2.35;;;17.00;59.50;;;;;;5031519;28;20029;-81
2021/06/26 01:27:04;;;;;;;2.80;2.30;;;17.00;59.50;;;;;;5047959;28;20048;-81
2021/06/26 01:29:31;;;;;;;2.67;2.40;;;17.00;59.50;;;;;;5030936;28;20025;-80
2021/06/26 01:31:57;;;;;;;3.05;2.75;;;17.00;59.60;;;;;;5031271;28;20064;-80
2021/06/26 01:34:23;;;;;;;3.92;2.65;;;16.90;59.40;;;;;;5032575;28;20599;-81
2021/06/26 01:36:49;;;;;;;2.85;2.63;;;16.90;59.50;;;;;;5050590;28;20025;-81
2021/06/26 01:39:16;;;;;;;3.67;2.92;;;17.00;59.70;;;;;;5055366;28;20386;-81
2021/06/26 01:41:42;;;;;;;5.55;3.05;;;16.90;59.50;;;;;;5012562;28;20388;-81
2021/06/26 01:44:08;;;;;;;2.80;2.35;;;16.90;59.60;;;;;;5012470;28;20390;-81
2021/06/26 01:46:38;;;;;;;3.55;2.80;;;16.90;59.60;;;;;;5038337;28;20036;-80
2021/06/26 01:49:12;;;;;;;2.83;2.28;;;16.90;59.60;;;;;;5014426;28;20029;-81
2021/06/26 01:51:38;;;;;;;3.00;2.70;;;16.80;59.50;;;;;;5013890;28;20033;-82
2021/06/26 01:54:09;;;;;;;3.88;2.50;;;16.80;59.40;;;;;;5014020;28;20492;-82
2021/06/26 01:56:39;;;;;;;2.72;2.50;;;16.80;59.50;;;;;;5013515;28;20079;-82
2021/06/26 01:59:06;;;;;;;2.83;2.30;;;16.80;59.60;;;;;;5014133;28;20112;-81
2021/06/26 02:01:34;;;;;;;3.28;2.85;;;16.80;59.50;;;;;;4997858;28;20490;-81
2021/06/26 02:04:00;;;;;;;2.65;2.30;;;16.80;59.60;;;;;;5015708;28;20082;-81
2021/06/26 02:06:26;;;;;;;3.20;2.88;;;16.80;59.60;;;;;;5015594;28;20033;-83
2021/06/26 02:08:52;;;;;;;2.80;2.42;;;16.80;59.70;;;;;;5015476;28;20033;-82
2021/06/26 02:11:18;;;;;;;2.92;2.50;;;16.80;59.70;;;;;;5015392;28;20030;-83
2021/06/26 02:13:44;;;;;;;4.35;2.78;;;16.70;59.60;;;;;;5015516;28;20037;-82
2021/06/26 02:16:10;;;;;;;2.92;2.60;;;16.70;59.60;;;;;;5015489;28;20033;-81
2021/06/26 02:18:36;;;;;;;3.33;3.00;;;16.70;59.60;;;;;;5015293;28;20029;-82
2021/06/26 02:21:03;;;;;;;2.70;2.50;;;16.70;59.70;;;;;;5014997;28;20026;-82
2021/06/26 02:23:29;;;;;;;4.00;3.50;;;16.70;59.70;;;;;;5027137;28;20412;-82
2021/06/26 02:25:55;;;;;;;4.78;2.70;;;16.70;59.70;;;;;;5050947;28;20403;-82
2021/06/26 02:28:22;;;;;;;4.75;3.03;;;16.70;59.80;;;;;;5051827;28;20064;-82
2021/06/26 02:30:48;;;;;;;2.92;2.72;;;16.70;59.80;;;;;;5051443;28;20053;-81
2021/06/26 02:33:14;;;;;;;3.10;2.80;;;16.70;59.80;;;;;;5051101;28;20523;-82
2021/06/26 02:35:41;;;;;;;3.42;2.65;;;16.60;59.60;;;;;;5051788;28;20416;-81
2021/06/26 02:38:07;;;;;;;3.15;2.90;;;16.60;59.70;;;;;;5051668;28;20033;-80
2021/06/26 02:40:33;;;;;;;2.97;2.78;;;16.60;59.70;;;;;;5051170;28;20032;-80
2021/06/26 02:43:00;;;;;;;3.60;3.05;;;16.60;59.80;;;;;;5034906;28;20052;-80
2021/06/26 02:45:26;;;;;;;3.63;3.33;;;16.50;59.60;;;;;;5034432;28;20033;-81
2021/06/26 02:47:52;;;;;;;3.15;2.88;;;16.50;59.60;;;;;;5051390;28;20033;-78
2021/06/26 02:50:18;;;;;;;3.78;3.47;;;16.50;59.70;;;;;;5051322;28;20066;-79
2021/06/26 02:52:44;;;;;;;4.03;3.58;;;16.40;59.50;;;;;;5051063;28;20056;-80
2021/06/26 02:55:11;;;;;;;3.70;3.22;;;16.40;59.60;;;;;;5050880;28;20029;-80
2021/06/26 02:57:37;;;;;;;3.25;2.95;;;16.30;59.40;;;;;;5015145;28;20092;-80
2021/06/26 03:00:05;;;;;;;3.72;3.35;;;16.30;59.50;;;;;;5031496;28;20116;-80
2021/06/26 03:02:31;;;;;;;3.85;2.83;;;16.30;59.50;;;;;;5014156;28;20042;-80
2021/06/26 03:04:58;;;;;;;3.42;3.13;;;16.30;59.50;;;;;;5031047;28;20551;-79
2021/06/26 03:07:24;;;;;;;3.63;3.17;;;16.20;59.50;;;;;;5030442;28;20037;-79
2021/06/26 03:09:50;;;;;;;3.58;3.28;;;16.10;59.30;;;;;;5030518;28;20156;-80
2021/06/26 03:12:16;;;;;;;4.03;3.50;;;16.10;59.40;;;;;;5031102;28;20247;-82
2021/06/26 03:14:42;;;;;;;4.18;3.78;;;16.10;59.50;;;;;;5030956;28;20040;-80
2021/06/26 03:17:08;;;;;;;3.75;3.45;;;16.00;59.40;;;;;;5047127;28;20064;-80
2021/06/26 03:19:34;;;;;;;3.58;3.28;;;16.00;59.40;;;;;;5031044;28;20174;-78
2021/06/26 03:22:00;;;;;;;4.07;3.67;;;16.00;59.50;;;;;;5014466;28;20044;-78
2021/06/26 03:24:28;;;;;;;3.80;3.50;;;15.90;59.40;;;;;;5013791;28;20033;-79
2021/06/26 03:26:55;;;;;;;3.40;3.10;;;15.90;59.50;;;;;;5014392;28;20030;-80
2021/06/26 03:29:21;;;;;;;3.42;3.17;;;15.90;59.50;;;;;;5014254;28;20022;-79
2021/06/26 03:31:48;;;;;;;4.55;3.38;;;15.80;59.40;;;;;;5013977;28;20087;-79
2021/06/26 03:34:14;;;;;;;4.07;3.67;;;15.80;59.50;;;;;;5030016;28;20022;-80
2021/06/26 03:36:40;;;;;;;3.85;3.55;;;15.80;59.50;;;;;;5014185;28;20409;-80
2021/06/26 03:39:06;;;;;;;4.13;3.65;;;15.80;59.60;;;;;;5030165;28;20035;-79
2021/06/26 03:41:32;;;;;;;4.35;3.90;;;15.70;59.50;;;;;;5031933;28;20127;-79
2021/06/26 03:43:59;;;;;;;3.90;3.60;;;15.70;59.50;;;;;;5031554;28;20163;-81
2021/06/26 03:46:27;;;;;;;4.28;3.90;;;15.70;59.60;;;;;;5031943;28;20072;-81
2021/06/26 03:48:53;;;;;;;3.92;3.63;;;15.60;59.40;;;;;;5031347;28;20073;-81
2021/06/26 03:51:19;;;;;;;3.90;3.50;;;15.60;59.50;;;;;;5030338;28;20021;-81
2021/06/26 03:53:48;;;;;;;4.25;3.75;;;15.60;59.60;;;;;;5030181;28;20034;-81
2021/06/26 03:56:15;;;;;;;4.43;4.03;;;15.60;59.60;;;;;;5031372;28;20033;-81
2021/06/26 03:58:41;;;;;;;4.60;4.13;;;15.50;59.50;;;;;;5030099;28;20136;-81
2021/06/26 04:01:07;;;;;;;4.70;3.90;;;15.50;59.60;;;;;;5030445;28;20064;-81
2021/06/26 04:03:33;;;;;;;4.55;4.03;;;15.50;59.60;;;;;;5030233;28;20191;-80
2021/06/26 04:05:59;;;;;;;4.60;3.90;;;15.50;59.60;;;;;;5013821;28;20033;-80
2021/06/26 04:08:25;;;;;;;3.97;3.47;;;15.50;59.70;;;;;;5030044;28;20029;-81
2021/06/26 04:10:51;;;;;;;5.32;4.53;;;15.50;59.70;;;;;;5046937;28;20045;-81
2021/06/26 04:13:17;;;;;;;3.83;3.50;;;15.50;59.70;;;;;;5031350;28;20025;-82
2021/06/26 04:15:43;;;;;;;4.80;4.15;;;15.40;59.60;;;;;;5030470;28;20060;-82
2021/06/26 04:18:09;;;;;;;4.55;4.15;;;15.50;60.30;;;;;;5030469;28;20491;-83
2021/06/26 04:20:35;;;;;;;5.25;3.75;;;15.40;59.60;;;;;;5034916;28;20026;-81
2021/06/26 04:23:01;;;;;;;4.00;3.70;;;15.50;59.90;;;;;;5035609;28;20044;-81
2021/06/26 04:25:28;;;;;;;7.82;4.28;;;15.40;59.70;;;;;;5034220;28;20037;-81
2021/06/26 04:27:54;;;;;;;4.70;4.30;;;15.50;59.90;;;;;;5050637;28;20045;-82
2021/06/26 04:30:20;;;;;;;4.80;4.20;;;15.40;59.70;;;;;;5035317;28;20476;-81
2021/06/26 04:32:47;;;;;;;3.85;3.55;;;15.50;59.90;;;;;;5050114;28;20053;-81
2021/06/26 04:35:15;;;;;;;4.65;3.95;;;15.50;59.90;;;;;;5035056;28;20497;-80
2021/06/26 04:37:41;;;;;;;5.00;4.13;;;15.50;59.90;;;;;;5034909;28;20124;-81
2021/06/26 04:40:07;;;;;;;5.47;4.03;;;15.50;59.90;;;;;;5035090;28;20523;-80
2021/06/26 04:42:33;;;;;;;5.28;4.65;;;15.50;59.90;;;;;;5034602;28;20076;-81
2021/06/26 04:44:59;;;;;;;5.03;4.43;;;15.50;59.90;;;;;;5033788;28;20030;-81
2021/06/26 04:47:27;;;;;;;3.83;3.53;;;15.50;59.90;;;;;;5034830;28;20556;-82
2021/06/26 04:49:53;;;;;;;4.28;3.88;;;15.50;59.90;;;;;;5051317;28;20033;-81
2021/06/26 04:52:19;;;;;;;5.10;4.57;;;15.50;59.90;;;;;;5051968;28;20181;-80
2021/06/26 04:54:45;;;;;;;4.43;4.03;;;15.50;59.90;;;;;;5050717;28;20025;-82
2021/06/26 04:57:12;;;;;;;4.75;4.25;;;15.50;59.90;;;;;;5033282;28;20064;-83
2021/06/26 04:59:38;;;;;;;4.57;4.18;;;15.50;59.90;;;;;;5014236;28;20029;-81
2021/06/26 05:02:04;;;;;;;4.45;4.05;;;15.50;59.90;;;;;;5013029;28;20030;-82
2021/06/26 05:04:30;;;;;;;4.45;4.07;;;15.50;59.90;;;;;;5011909;28;20037;-81
2021/06/26 05:06:56;;;;;;;4.75;4.35;;;15.50;59.90;;;;;;5011937;28;20306;-83
2021/06/26 05:09:23;;;;;;;4.07;3.70;;;15.50;59.90;;;;;;5028374;28;20086;-83
2021/06/26 05:11:49;;;;;;;4.32;3.95;;;15.50;59.90;;;;;;5012488;28;20033;-78
2021/06/26 05:14:15;;;;;;;4.70;4.18;;;15.50;59.90;;;;;;5027703;28;20030;-80
2021/06/26 05:16:42;;;;;;;4.90;3.75;;;15.60;60.10;;;;;;5028189;28;20057;-80
2021/06/26 05:19:09;;;;;;;4.93;4.05;;;15.60;60.10;;;;;;5028168;28;20026;-80
2021/06/26 05:21:35;;;;;;;4.40;4.00;;;15.50;59.90;;;;;;5011913;28;20222;-78
2021/06/26 05:24:03;;;;;;;3.95;3.55;;;15.60;60.10;;;;;;5026089;28;20500;-78
2021/06/26 05:26:29;;;;;;;5.00;4.50;;;15.60;60.10;;;;;;4996368;28;20206;-79
2021/06/26 05:28:55;;;;;;;5.65;4.45;;;15.60;60.00;;;;;;5021936;28;20037;-80
2021/06/26 05:31:22;;;;;;;4.30;3.90;;;15.70;60.20;;;;;;5015253;28;20036;-77
2021/06/26 05:33:48;;;;;;;5.22;4.75;;;15.70;60.10;;;;;;5040361;28;20493;-78
2021/06/26 05:36:14;;;;;;;6.82;3.85;;;15.70;60.10;;;;;;5026182;28;20158;-77
2021/06/26 05:38:41;;;;;;;4.43;4.13;;;15.80;60.30;;;;;;5047930;28;20037;-77
2021/06/26 05:41:08;;;;;;;9.00;4.72;;;15.80;60.20;;;;;;5048191;28;20072;-79
2021/06/26 05:43:35;;;;;;;4.50;4.10;;;15.80;60.20;;;;;;5033828;28;20037;-78
2021/06/26 05:46:01;;;;;;;4.55;4.22;;;15.90;60.30;;;;;;5011233;28;20036;-77
2021/06/26 05:48:27;;;;;;;4.90;4.47;;;15.90;60.30;;;;;;5020311;28;20451;-77
2021/06/26 05:50:53;;;;;;;5.50;4.72;;;15.90;60.20;;;;;;5047603;28;20186;-79
2021/06/26 05:53:20;;;;;;;4.80;4.30;;;16.00;60.40;;;;;;5035985;28;20498;-78
2021/06/26 05:55:59;;;;;;;5.13;4.63;;;16.00;60.40;;;;;;5011102;28;20656;-77
2021/06/26 05:58:28;;;;;;;4.20;3.80;;;16.00;60.40;;;;;;5027801;28;20033;-78
2021/06/26 06:00:54;;;;;;;4.68;4.28;;;16.00;60.40;;;;;;4994509;28;20197;-78
2021/06/26 06:03:20;;;;;;;4.68;4.38;;;16.10;60.50;;;;;;5027118;28;20041;-78
2021/06/26 06:05:47;;;;;;;5.57;4.68;;;16.10;60.50;;;;;;5010969;28;20028;-78
2021/06/26 06:08:14;;;;;;;4.97;4.18;;;16.10;60.50;;;;;;5017607;28;20037;-78
2021/06/26 06:10:40;;;;;;;5.45;4.13;;;16.10;60.50;;;;;;5030621;28;20025;-77
2021/06/26 06:13:36;;;;;;;6.00;5.35;;;16.20;60.70;;;;;;5020122;28;20026;-83
2021/06/26 06:16:56;;;;;;;6.75;6.07;;;16.20;61.00;;;;;;5028231;28;20076;-84
2021/06/26 06:19:34;;;;;;;8.52;7.07;;;16.30;61.60;;;;;;5035112;28;20061;-86
2021/06/26 06:22:08;;;;;;;7.90;7.07;;;16.40;62.90;;;;;;5039525;28;20308;-82
2021/06/26 06:24:34;;;;;;;10.48;7.05;;;16.60;63.40;;;;;;5047046;28;20049;-83
2021/06/26 06:27:01;;;;;;;9.50;7.65;;;16.70;64.10;;;;;;5047179;28;20406;-81
2021/06/26 06:29:27;;;;;;;7.40;6.65;;;16.80;64.60;;;;;;5029201;28;20300;-82
2021/06/26 06:31:54;;;;;;;8.60;7.70;;;16.90;65.20;;;;;;5027522;28;20051;-82
2021/06/26 06:34:21;;;;;;;8.18;7.15;;;17.10;65.90;;;;;;5025902;28;20112;-81
2021/06/26 06:37:38;;;;;;;8.77;7.88;;;17.30;66.40;;;;;;5039108;28;20129;-89
2021/06/26 06:40:06;;;;;;;7.47;6.72;;;17.50;67.10;;;;;;5042952;28;20079;-81
2021/06/26 06:42:33;;;;;;;7.70;6.90;;;17.80;67.10;;;;;;5017112;28;20052;-82
2021/06/26 06:44:59;;;;;;;7.85;6.88;;;18.00;67.70;;;;;;5011203;28;20054;-83
2021/06/26 06:47:26;;;;;;;8.50;6.75;;;18.20;67.90;;;;;;5011600;28;20041;-83
2021/06/26 06:49:52;;;;;;;7.00;6.32;;;18.40;67.90;;;;;;5024414;28;20025;-84
2021/06/26 06:52:20;;;;;;;9.98;7.15;;;18.60;68.00;;;;;;5043475;28;20026;-83
2021/06/26 06:54:54;;;;;;;8.35;7.22;;;18.80;68.20;;;;;;5051629;28;20040;-84
2021/06/26 06:58:08;;;;;;;7.75;7.05;;;18.80;67.90;;;;;;5007476;28;20029;-83
2021/06/26 07:00:54;;;;;;;7.82;6.93;;;18.90;68.20;;;;;;5032042;28;20102;-85
2021/06/26 07:03:22;;;;;;;7.68;6.97;;;19.10;68.10;;;;;;5047321;28;20041;-84
2021/06/26 07:05:48;;;;;;;8.70;7.28;;;19.30;68.20;;;;;;5030269;28;20029;-84
2021/06/26 07:08:14;;;;;;;8.43;6.55;;;19.30;68.10;;;;;;5054940;28;20075;-84
2021/06/26 07:10:41;;;;;;;7.30;6.68;;;19.60;68.90;;;;;;5025314;28;20124;-84
2021/06/26 07:13:07;;;;;;;8.20;6.75;;;19.90;69.00;;;;;;5025814;28;20040;-84
2021/06/26 07:15:33;;;;;;;10.73;6.93;;;20.10;68.70;;;;;;5025229;28;20029;-84
2021/06/26 07:17:59;;;;;;;7.18;6.47;;;20.40;68.90;;;;;;5010826;28;20029;-84
2021/06/26 07:21:07;;;;;;;7.07;6.38;;;20.70;68.90;;;;;;5000044;28;20048;-83
2021/06/26 07:25:04;;;;;;;6.65;6.05;;;21.20;69.40;;;;;;4998764;28;20042;-85
2021/06/26 07:28:21;;;;;;;6.10;5.50;;;21.90;68.30;;;;;;5044997;28;20029;-84
2021/06/26 07:31:15;;;;;;;7.97;5.75;;;22.40;67.60;;;;;;5047990;28;20484;-85
2021/06/26 07:33:43;;;;;;;5.68;5.07;;;22.70;67.10;;;;;;5045484;28;20496;-82
2021/06/26 07:36:09;;;;;;;6.20;5.57;;;22.80;66.40;;;;;;5062805;28;20037;-82
2021/06/26 07:38:35;;;;;;;7.05;5.57;;;22.80;65.90;;;;;;5045794;28;20029;-82
2021/06/26 07:41:01;;;;;;;6.25;5.40;;;22.80;65.60;;;;;;5047124;28;20098;-83
2021/06/26 07:43:27;;;;;;;6.82;6.13;;;22.60;65.10;;;;;;5047544;28;20055;-83
2021/06/26 07:45:54;;;;;;;6.65;5.95;;;22.60;65.00;;;;;;5046723;28;20052;-85
2021/06/26 07:48:20;;;;;;;5.68;4.63;;;22.50;65.00;;;;;;5038920;28;20037;-86
2021/06/26 07:50:51;;;;;;;5.65;5.18;;;22.60;65.20;;;;;;5026694;28;20056;-83
2021/06/26 07:53:18;;;;;;;5.25;4.63;;;22.80;65.10;;;;;;5026291;28;20422;-83
2021/06/26 07:55:51;;;;;;;6.22;5.72;;;22.90;64.50;;;;;;5026895;28;20042;-82
2021/06/26 07:58:21;;;;;;;5.38;4.88;;;22.90;64.20;;;;;;5026601;28;20591;-82
2021/06/26 08:00:49;;;;;;;7.80;6.07;;;22.80;63.80;;;;;;5026677;28;20051;-83
2021/06/26 08:03:19;;;;;;;5.50;5.00;;;22.80;63.80;;;;;;5026173;28;20037;-84
2021/06/26 08:05:45;;;;;;;5.57;5.18;;;22.70;63.70;;;;;;5026632;28;20652;-84
2021/06/26 08:08:12;;;;;;;6.10;4.90;;;22.80;63.90;;;;;;5061235;28;20420;-82
2021/06/26 08:10:38;;;;;;;5.70;5.22;;;22.90;63.70;;;;;;5046547;28;20102;-83
2021/06/26 08:13:04;;;;;;;5.53;4.80;;;23.00;63.50;;;;;;5051484;28;20051;-84
2021/06/26 08:15:31;;;;;;;6.50;4.53;;;23.00;63.40;;;;;;5026111;28;20075;-82
2021/06/26 08:17:58;;;;;;;5.60;5.10;;;22.90;63.20;;;;;;5025578;28;20032;-81
2021/06/26 08:20:25;;;;;;;6.45;4.40;;;22.90;63.30;;;;;;5027061;28;20036;-82
2021/06/26 08:22:51;;;;;;;6.32;5.13;;;22.80;63.20;;;;;;5025802;28;20152;-81
2021/06/26 08:25:17;;;;;;;4.90;4.50;;;22.70;63.10;;;;;;5025136;28;20029;-82
2021/06/26 08:27:43;;;;;;;4.93;4.13;;;22.70;63.10;;;;;;5029484;28;20040;-79
2021/06/26 08:30:09;;;;;;;5.20;4.60;;;22.70;63.10;;;;;;5046831;28;20048;-80
2021/06/26 08:32:35;;;;;;;5.53;4.65;;;22.70;63.10;;;;;;5040543;28;20127;-83
2021/06/26 08:35:01;;;;;;;4.35;4.00;;;23.10;63.50;;;;;;5027827;28;20030;-81
2021/06/26 08:37:27;;;;;;;6.00;4.68;;;23.80;63.20;;;;;;5027565;28;20500;-81
2021/06/26 08:39:54;;;;;;;5.72;4.20;;;24.40;62.60;;;;;;5046471;28;20294;-82
2021/06/26 08:42:20;;;;;;;9.90;4.57;;;24.90;61.90;;;;;;5044982;28;20057;-81
2021/06/26 08:44:59;;;;;;;6.25;4.50;;;25.20;61.10;;;;;;5029500;28;20039;-82
2021/06/26 08:47:26;;;;;;;6.35;3.70;;;25.10;60.70;;;;;;5028900;28;20074;-83
2021/06/26 08:49:53;;;;;;;4.80;4.18;;;24.90;60.90;;;;;;5045288;28;20040;-82
2021/06/26 08:52:19;;;;;;;5.63;4.18;;;24.80;60.90;;;;;;5045565;28;20037;-83
2021/06/26 08:54:48;;;;;;;4.32;3.97;;;24.70;61.10;;;;;;5045362;28;20116;-82
2021/06/26 08:57:24;;;;;;;5.70;4.47;;;24.60;60.90;;;;;;5045348;28;20454;-80
2021/06/26 08:59:50;;;;;;;4.78;4.22;;;24.50;60.90;;;;;;5024872;28;20030;-81
2021/06/26 09:02:23;;;;;;;4.05;3.75;;;24.40;61.00;;;;;;5025865;28;20041;-74
2021/06/26 09:04:49;;;;;;;4.10;3.60;;;24.20;60.70;;;;;;5043393;28;20102;-74
2021/06/26 09:07:30;;;;;;;4.25;3.85;;;24.10;60.70;;;;;;5046829;28;20032;-81
2021/06/26 09:09:56;;;;;;;4.28;3.60;;;24.10;60.90;;;;;;5044538;28;20025;-79
2021/06/26 09:12:25;;;;;;;4.72;3.45;;;24.10;61.00;;;;;;5048351;28;20029;-81
2021/06/26 09:14:52;;;;;;;8.57;3.65;;;24.10;61.10;;;;;;5031790;28;20064;-80
2021/06/26 09:17:32;;;;;;;4.10;3.70;;;24.10;61.10;;;;;;5048207;28;20099;-76
2021/06/26 09:20:05;;;;;;;5.35;3.85;;;24.10;61.10;;;;;;5049909;28;20083;-76
2021/06/26 09:22:46;;;;;;;4.35;3.72;;;24.20;61.20;;;;;;5048372;28;20044;-80
2021/06/26 09:25:26;;;;;;;4.32;3.92;;;24.60;61.30;;;;;;5049474;28;20047;-76
2021/06/26 09:27:52;;;;;;;4.20;3.80;;;24.80;61.00;;;;;;5047800;28;20032;-77
2021/06/26 09:30:30;;;;;;;5.22;3.80;;;25.20;61.10;;;;;;5047949;28;20064;-77
2021/06/26 09:32:56;;;;;;;4.32;3.47;;;25.60;60.40;;;;;;5047666;28;20056;-74
2021/06/26 09:35:22;;;;;;;3.88;3.30;;;25.80;59.90;;;;;;5047191;28;20074;-75
2021/06/26 09:37:48;;;;;;;3.63;3.03;;;25.90;59.60;;;;;;5048378;28;20291;-75
2021/06/26 09:40:27;;;;;;;3.95;3.10;;;25.90;59.50;;;;;;5049710;28;20384;-75
2021/06/26 09:42:54;;;;;;;2.90;2.70;;;25.90;59.40;;;;;;5047311;28;20107;-77
2021/06/26 09:45:20;;;;;;;3.90;3.50;;;25.80;59.50;;;;;;5048754;28;20029;-77
2021/06/26 09:47:47;;;;;;;3.40;3.10;;;25.80;59.70;;;;;;5030445;28;20048;-78
2021/06/26 09:50:17;;;;;;;3.60;3.30;;;25.90;59.70;;;;;;5047552;28;20380;-76
2021/06/26 09:53:00;;;;;;;3.03;2.83;;;26.00;59.70;;;;;;5024944;28;20087;-76
2021/06/26 09:55:31;;;;;;;4.03;3.03;;;26.10;59.50;;;;;;5028163;28;20025;-76
2021/06/26 09:58:11;;;;;;;5.80;2.83;;;26.30;59.40;;;;;;5027266;28;20040;-76
2021/06/26 10:00:40;;;;;;;4.10;3.08;;;26.50;59.70;;;;;;5028420;28;20440;-76
2021/06/26 10:03:07;;;;;;;3.83;3.00;;;26.70;58.90;;;;;;5037248;28;20041;-75
2021/06/26 10:05:33;;;;;;;3.85;3.40;;;26.80;58.70;;;;;;5046765;28;20629;-74
2021/06/26 10:08:02;;;;;;;4.20;3.15;;;26.80;58.60;;;;;;5047829;28;20037;-78
2021/06/26 10:10:28;;;;;;;2.58;2.38;;;26.90;58.60;;;;;;5047280;28;20122;-76
2021/06/26 10:12:55;;;;;;;3.00;2.42;;;27.20;58.50;;;;;;5047585;28;20140;-74
2021/06/26 10:15:27;;;;;;;3.35;3.00;;;27.50;58.10;;;;;;5047334;28;20071;-74
2021/06/26 10:17:53;;;;;;;3.53;3.22;;;27.90;57.70;;;;;;5045130;28;20036;-74
2021/06/26 10:20:22;;;;;;;3.10;2.80;;;28.20;57.20;;;;;;5027976;28;20035;-74
2021/06/26 10:22:57;;;;;;;3.38;3.08;;;28.40;56.80;;;;;;5044801;28;20045;-76
2021/06/26 10:25:35;;;;;;;3.03;2.75;;;28.40;56.50;;;;;;5046685;28;20031;-74
2021/06/26 10:28:08;;;;;;;2.55;2.35;;;28.30;56.40;;;;;;5047745;28;20032;-76
2021/06/26 10:30:36;;;;;;;3.50;2.58;;;28.30;56.50;;;;;;5047290;28;20439;-76
2021/06/26 10:33:05;;;;;;;2.63;2.42;;;28.30;56.60;;;;;;5047745;28;20160;-76
2021/06/26 10:35:33;;;;;;;2.95;2.40;;;28.20;56.50;;;;;;5047643;28;20029;-75
2021/06/26 10:38:04;;;;;;;2.78;2.58;;;28.20;56.40;;;;;;5046856;28;20403;-75
2021/06/26 10:40:48;;;;;;;3.15;2.80;;;28.20;56.40;;;;;;5045545;28;20045;-78
2021/06/26 10:43:35;;;;;;;6.32;3.58;;;28.10;56.40;;;;;;5046226;28;20605;-76
2021/06/26 10:46:09;;;;;;;3.20;2.90;;;28.00;56.40;;;;;;5045468;28;20416;-82
2021/06/26 10:48:36;;;;;;;4.05;3.28;;;27.80;56.40;;;;;;5040902;28;20500;-75
2021/06/26 10:51:03;;;;;;;6.10;4.30;;;27.80;55.40;;;;;;5046177;28;20029;-79
2021/06/26 10:53:30;;;;;;;4.10;3.70;;;27.60;54.20;;;;;;5034379;28;20467;-73
2021/06/26 10:56:02;;;;;;;4.93;3.60;;;27.30;53.40;;;;;;5027870;28;20065;-81
2021/06/26 10:58:34;;;;;;;4.28;3.83;;;27.00;52.30;;;;;;5016302;28;20110;-73
2021/06/26 11:01:11;;;;;;;4.20;3.80;;;26.80;52.30;;;;;;5045882;28;20060;-74
2021/06/26 11:03:37;;;;;;;4.82;3.47;;;26.70;52.10;;;;;;5047138;28;20187;-74
2021/06/26 11:06:14;;;;;;;3.70;3.15;;;26.70;51.80;;;;;;5047394;28;20480;-74
2021/06/26 11:08:40;;;;;;;4.28;3.58;;;26.70;50.80;;;;;;5046584;28;20439;-75
2021/06/26 11:11:06;;;;;;;4.70;3.53;;;26.90;50.70;;;;;;5045622;28;20495;-74
2021/06/26 11:13:32;;;;;;;4.20;3.58;;;27.00;50.00;;;;;;5046520;28;20107;-75
2021/06/26 11:16:07;;;;;;;4.38;3.40;;;27.10;49.50;;;;;;5045407;28;20051;-75
2021/06/26 11:18:33;;;;;;;3.78;3.33;;;27.20;48.80;;;;;;5035781;28;20030;-75
2021/06/26 11:21:00;;;;;;;4.35;3.38;;;27.00;48.60;;;;;;5027100;28;20103;-76
2021/06/26 11:23:26;;;;;;;3.45;3.15;;;26.90;48.50;;;;;;5024554;28;20041;-76
2021/06/26 11:25:59;;;;;;;6.90;3.28;;;26.70;48.30;;;;;;5026118;28;20045;-76
2021/06/26 11:28:25;;;;;;;3.97;3.63;;;26.70;48.20;;;;;;5034258;28;20033;-77
2021/06/26 11:31:00;;;;;;;4.90;3.47;;;26.60;48.30;;;;;;5046686;28;20035;-79
2021/06/26 11:33:34;;;;;;;3.78;3.38;;;26.60;47.90;;;;;;5046755;28;20056;-74
2021/06/26 11:36:00;;;;;;;4.40;3.58;;;26.60;47.80;;;;;;5044913;28;20485;-73
2021/06/26 11:38:27;;;;;;;3.55;3.08;;;26.60;47.80;;;;;;5046832;28;20032;-75
2021/06/26 11:41:07;;;;;;;3.50;2.78;;;26.60;47.70;;;;;;5046585;28;20027;-76
2021/06/26 11:43:34;;;;;;;3.53;3.00;;;26.60;47.20;;;;;;5045884;28;20037;-77
2021/06/26 11:46:01;;;;;;;4.93;3.40;;;26.70;47.10;;;;;;5046782;28;20024;-75
2021/06/26 11:48:28;;;;;;;3.33;3.03;;;26.70;46.80;;;;;;5043023;28;20254;-77
2021/06/26 11:51:04;;;;;;;4.35;3.88;;;26.60;46.40;;;;;;5059494;28;20025;-81
2021/06/26 11:53:35;;;;;;;9.45;4.65;;;26.60;46.30;;;;;;5038379;28;20033;-74
2021/06/26 11:56:02;;;;;;;10.68;5.30;;;26.60;47.00;;;;;;5046735;28;20025;-78
2021/06/26 11:58:43;;;;;;;9.25;5.32;;;26.60;47.70;;;;;;5045681;28;20523;-78
2021/06/26 12:01:27;;;;;;;9.13;6.47;;;26.70;48.70;;;;;;5046782;28;20039;-76
2021/06/26 12:03:54;;;;;;;9.23;7.30;;;26.80;49.30;;;;;;5044900;28;20041;-77
2021/06/26 12:06:21;;;;;;;8.73;6.50;;;26.90;49.90;;;;;;5044740;28;20067;-77
2021/06/26 12:08:55;;;;;;;7.55;5.70;;;26.90;49.90;;;;;;5034548;28;20091;-77
2021/06/26 12:11:23;;;;;;;5.68;5.00;;;27.00;50.00;;;;;;5024093;28;20029;-78
2021/06/26 12:13:52;;;;;;;5.68;4.68;;;27.00;49.70;;;;;;5038760;28;20025;-78
2021/06/26 12:16:20;;;;;;;5.55;4.70;;;27.00;49.70;;;;;;5043849;28;20439;-78
2021/06/26 12:18:50;;;;;;;4.82;4.13;;;27.00;50.00;;;;;;5044803;28;20116;-77
2021/06/26 12:21:17;;;;;;;3.95;3.55;;;27.10;49.50;;;;;;5046072;28;20152;-77
2021/06/26 12:23:47;;;;;;;5.50;4.22;;;27.20;49.30;;;;;;5045953;28;20083;-81
2021/06/26 12:26:21;;;;;;;4.43;4.03;;;27.20;49.20;;;;;;5045108;28;20091;-80
2021/06/26 12:28:47;;;;;;;4.78;3.85;;;27.30;49.50;;;;;;5034239;28;20076;-80
2021/06/26 12:31:14;;;;;;;4.88;4.13;;;27.30;49.60;;;;;;5044487;28;20052;-81
2021/06/26 12:33:40;;;;;;;4.45;4.05;;;27.40;49.70;;;;;;5049259;28;20043;-81
2021/06/26 12:36:18;;;;;;;4.80;3.42;;;27.60;49.80;;;;;;5028324;28;20409;-80
2021/06/26 12:38:45;;;;;;;3.50;3.20;;;27.70;49.80;;;;;;5036229;28;20021;-79
2021/06/26 12:41:27;;;;;;;3.97;3.17;;;27.70;49.70;;;;;;5035647;28;20034;-78
2021/06/26 12:43:58;;;;;;;3.90;3.50;;;27.70;49.70;;;;;;5038692;28;20080;-79
2021/06/26 12:46:26;;;;;;;3.85;3.55;;;27.80;49.90;;;;;;5044510;28;20021;-78
2021/06/26 12:48:59;;;;;;;11.23;3.47;;;27.80;50.00;;;;;;5037866;28;20091;-80
2021/06/26 12:51:45;;;;;;;3.47;3.00;;;27.70;49.90;;;;;;5045154;28;20032;-81
2021/06/26 12:54:12;;;;;;;3.42;2.55;;;27.70;50.40;;;;;;5045439;28;20428;-80
2021/06/26 12:56:43;;;;;;;5.20;3.15;;;27.70;49.40;;;;;;5030067;28;20420;-80